createdAt,value
2024-05-09T00:00:49.978Z,10.5
2024-05-09T00:05:54.545Z,10.5
2024-05-09T00:10:59.107Z,10.5
2024-05-09T00:16:03.547Z,10.5
2024-05-09T00:21:07.215Z,10.5
2024-05-09T00:26:11.688Z,10.5
2024-05-09T00:31:16.176Z,10.5
2024-05-09T00:36:19.731Z,10.5
2024-05-09T00:41:30.782Z,10.5
2024-05-09T00:46:28.905Z,10.5
2024-05-09T00:51:32.348Z,10.5
2024-05-09T00:56:37.004Z,10.4
2024-05-09T01:01:41.560Z,10.4
2024-05-09T01:06:44.981Z,10.4
2024-05-09T01:11:49.651Z,10.4
2024-05-09T01:16:54.096Z,10.3
2024-05-09T01:21:58.635Z,10.3
2024-05-09T01:27:02.173Z,10.3
2024-05-09T01:32:06.811Z,10.3
2024-05-09T01:47:19.495Z,10.2
2024-05-09T01:52:23.838Z,10.3
2024-05-09T01:57:27.407Z,10.3
2024-05-09T02:02:31.988Z,10.2
2024-05-09T02:07:36.475Z,10.3
2024-05-09T02:12:40.008Z,10.2
2024-05-09T02:17:44.853Z,10.3
2024-05-09T02:22:49.112Z,10.1
2024-05-09T02:27:53.632Z,10.2
2024-05-09T02:32:57.283Z,10.1
2024-05-09T02:38:01.826Z,10.2
2024-05-09T02:43:06.554Z,10.1
2024-05-09T02:48:09.968Z,10.1
2024-05-09T02:53:14.720Z,10.1
2024-05-09T02:58:18.878Z,10
2024-05-09T03:03:22.716Z,9.9
2024-05-09T03:08:27.011Z,9.8
2024-05-09T03:13:31.475Z,9.8
2024-05-09T03:18:35.065Z,9.6
2024-05-09T03:23:39.730Z,9.7
2024-05-09T03:28:44.088Z,9.7
2024-05-09T03:33:48.837Z,9.7
2024-05-09T03:38:52.155Z,9.7
2024-05-09T03:43:55.785Z,9.6
2024-05-09T03:49:00.324Z,9.5
2024-05-09T03:54:04.797Z,9.5
2024-05-09T03:59:08.456Z,9.4
2024-05-09T04:04:12.913Z,9.5
2024-05-09T04:09:17.406Z,9.7
2024-05-09T04:14:21.960Z,9.6
2024-05-09T04:19:25.640Z,10
2024-05-09T04:24:30.379Z,10
2024-05-09T04:29:34.640Z,9.8
2024-05-09T04:34:38.157Z,10
2024-05-09T04:39:42.656Z,10
2024-05-09T04:44:47.163Z,9.9
2024-05-09T04:49:50.789Z,10.3
2024-05-09T04:54:56.907Z,10.2
2024-05-09T04:59:59.814Z,10
2024-05-09T05:05:03.525Z,10
2024-05-09T05:10:11.845Z,10.3
2024-05-09T05:15:12.762Z,10.2
2024-05-09T05:20:24.503Z,10.4
2024-05-09T05:25:20.477Z,10.1
2024-05-09T05:30:29.179Z,10
2024-05-09T05:35:29.689Z,10.1
2024-05-09T05:40:36.899Z,10
2024-05-09T05:45:37.944Z,10
2024-05-09T05:50:42.308Z,10.2
2024-05-09T05:55:45.798Z,10.3
2024-05-09T06:00:50.319Z,9.9
2024-05-09T06:05:54.868Z,10
2024-05-09T06:10:58.463Z,10.1
2024-05-09T06:16:02.891Z,10.7
2024-05-09T06:21:07.507Z,10.4
2024-05-09T06:26:12.002Z,10.2
2024-05-09T06:31:15.521Z,10.6
2024-05-09T06:36:20.087Z,10.8
2024-05-09T06:41:24.631Z,10.7
2024-05-09T06:46:28.231Z,11
2024-05-09T06:51:32.723Z,10.9
2024-05-09T06:56:37.349Z,11
2024-05-09T07:01:40.868Z,11.2
2024-05-09T07:06:45.276Z,10.7
2024-05-09T07:11:49.989Z,10.6
2024-05-09T07:16:53.538Z,10.4
2024-05-09T07:21:57.909Z,10.9
2024-05-09T07:27:02.422Z,10.9
2024-05-09T07:32:12.525Z,11.2
2024-05-09T07:38:40.771Z,11.3
2024-05-09T07:50:34.411Z,11.4
2024-05-09T07:53:44.344Z,11
2024-05-09T07:58:42.828Z,11.2
2024-05-09T08:03:47.616Z,11.3
2024-05-09T08:08:51.916Z,11.2
2024-05-09T08:13:55.458Z,11.3
2024-05-09T08:19:00.202Z,11.7
2024-05-09T08:24:04.646Z,11.4
2024-05-09T08:29:09.085Z,11.4
2024-05-09T08:34:12.755Z,11.8
2024-05-09T08:39:22.456Z,12
2024-05-09T08:45:37.848Z,12
2024-05-09T08:50:41.650Z,11.9
2024-05-09T08:55:45.949Z,12.4
2024-05-09T09:00:50.613Z,12.3
2024-05-09T09:05:54.037Z,13
2024-05-09T09:10:58.556Z,12.5
2024-05-09T09:16:03.335Z,12.4
2024-05-09T09:21:06.611Z,13.2
2024-05-09T09:26:11.185Z,12.6
2024-05-09T09:31:15.685Z,12.1
2024-05-09T09:36:19.246Z,12.1
2024-05-09T09:41:23.775Z,11.6
2024-05-09T09:46:28.293Z,11.6
2024-05-09T09:51:33.208Z,11.5
2024-05-09T09:56:36.379Z,11.6
2024-05-09T10:01:41.116Z,11.4
2024-05-09T10:06:48.713Z,11.2
2024-05-09T10:11:52.096Z,10.3
2024-05-09T10:16:53.532Z,10.6
2024-05-09T10:21:58.137Z,10.7
2024-05-09T10:27:01.654Z,10.1
2024-05-09T10:32:06.162Z,10
2024-05-09T10:37:10.746Z,10.5
2024-05-09T10:42:14.379Z,10.2
2024-05-09T10:47:18.816Z,10.5
2024-05-09T10:52:23.363Z,10.8
2024-05-09T10:57:27.928Z,11
2024-05-09T11:02:31.609Z,10.7
2024-05-09T11:07:35.944Z,11
2024-05-09T11:12:40.548Z,10.6
2024-05-09T11:17:44.182Z,11
2024-05-09T11:22:48.553Z,11.2
2024-05-09T11:27:53.155Z,11.1
2024-05-09T11:32:56.852Z,11.5
2024-05-09T11:38:01.212Z,11.2
2024-05-09T11:43:05.890Z,11.3
2024-05-09T11:48:09.388Z,11.3
2024-05-09T11:53:13.842Z,11
2024-05-09T11:58:19.164Z,11.2
2024-05-09T12:08:26.571Z,10.7
2024-05-09T12:13:30.089Z,10.7
2024-05-09T12:18:34.627Z,10.9
2024-05-09T12:23:39.060Z,11.5
2024-05-09T12:28:42.622Z,11.5
2024-05-09T12:33:47.277Z,11.6
2024-05-09T12:38:51.692Z,11.9
2024-05-09T12:48:59.971Z,11.3
2024-05-09T12:54:04.294Z,11.3
2024-05-09T12:59:08.838Z,11.8
2024-05-09T13:04:12.553Z,11.4
2024-05-09T13:09:16.954Z,10.9
2024-05-09T13:14:21.555Z,11.1
2024-05-09T13:19:25.062Z,11.1
2024-05-09T13:24:29.578Z,11
2024-05-09T13:29:34.100Z,11
2024-05-09T13:34:37.698Z,11.5
2024-05-09T13:39:42.243Z,11.4
2024-05-09T13:44:46.698Z,11.7
2024-05-09T13:49:59.009Z,11.5
2024-05-09T13:56:10.936Z,11.6
2024-05-09T14:01:15.538Z,11.7
2024-05-09T14:06:20.008Z,12.1
2024-05-09T14:11:23.573Z,11.3
2024-05-09T14:16:28.174Z,11.5
2024-05-09T14:21:32.761Z,11.8
2024-05-09T14:26:36.171Z,10.9
2024-05-09T14:31:40.915Z,11.4
2024-05-09T14:36:45.289Z,11.4
2024-05-09T14:41:48.812Z,11.5
2024-05-09T14:46:53.330Z,11.1
2024-05-09T14:51:57.959Z,11.4
2024-05-09T14:57:01.448Z,11
2024-05-09T15:02:06.190Z,11.4
2024-05-09T15:07:11.532Z,11.7
2024-05-09T15:12:15.120Z,11.5
2024-05-09T15:17:18.570Z,11.5
2024-05-09T15:22:23.159Z,11.4
2024-05-09T15:27:27.646Z,11.4
2024-05-09T15:32:31.462Z,11.3
2024-05-09T15:37:35.752Z,11.6
2024-05-09T15:42:42.747Z,11.6
2024-05-09T15:47:43.886Z,11.7
2024-05-09T15:52:48.358Z,11.4
2024-05-09T15:57:52.927Z,11.7
2024-05-09T16:02:56.501Z,11.3
2024-05-09T16:08:01.015Z,11.2
2024-05-09T16:13:05.595Z,11.3
2024-05-09T16:18:10.091Z,11.5
2024-05-09T16:23:13.588Z,11.5
2024-05-09T16:28:17.167Z,11.6
2024-05-09T16:33:21.809Z,11.5
2024-05-09T16:38:26.191Z,11.8
2024-05-09T16:48:34.527Z,11.8
2024-05-09T16:53:38.849Z,11.5
2024-05-09T16:58:43.366Z,11.4
2024-05-09T17:03:47.089Z,11.8
2024-05-09T17:08:51.764Z,11.7
2024-05-09T17:18:59.730Z,11.7
2024-05-09T17:24:04.073Z,11.7
2024-05-09T17:29:10.892Z,11.8
2024-05-09T17:34:12.276Z,11.9
2024-05-09T17:39:16.725Z,11.9
2024-05-09T17:44:21.235Z,11.9
2024-05-09T17:49:24.971Z,11.8
2024-05-09T17:54:29.300Z,11.8
2024-05-09T17:59:33.902Z,11.8
2024-05-09T18:04:38.458Z,11.6
2024-05-09T18:09:41.933Z,11.5
2024-05-09T18:14:46.453Z,11.5
2024-05-09T18:19:51.078Z,11.2
2024-05-09T18:24:54.606Z,11.1
2024-05-09T18:29:59.094Z,11.4
2024-05-09T18:35:03.689Z,11.3
2024-05-09T18:40:11.751Z,11.4
2024-05-09T18:45:11.704Z,11.5
2024-05-09T18:50:24.620Z,11.6
2024-05-09T18:55:19.774Z,11.6
2024-05-09T19:00:37.446Z,11.6
2024-05-09T19:05:29.033Z,11.5
2024-05-09T19:10:35.118Z,11.5
2024-05-09T19:15:37.056Z,11.3
2024-05-09T19:20:41.649Z,11.3
2024-05-09T19:25:46.002Z,11.3
2024-05-09T19:30:49.940Z,11.4
2024-05-09T19:35:54.069Z,11.3
2024-05-09T19:40:58.658Z,11.3
2024-05-09T19:46:13.511Z,11.2
2024-05-09T19:51:06.721Z,11.3
2024-05-09T19:56:11.279Z,11.3
2024-05-09T20:01:14.918Z,11.2
2024-05-09T20:06:19.301Z,11.3
2024-05-09T20:11:23.906Z,11.2
2024-05-09T20:16:28.417Z,11.2
2024-05-09T20:21:31.981Z,11.2
2024-05-09T20:26:36.476Z,11.2
2024-05-09T20:31:40.971Z,11.2
2024-05-09T20:36:44.542Z,11.2
2024-05-09T20:41:48.127Z,11.2
2024-05-09T20:46:52.627Z,11.1
2024-05-09T20:51:57.227Z,11.2
2024-05-09T20:57:01.718Z,11
2024-05-09T21:02:05.351Z,11
2024-05-09T21:07:09.812Z,11
2024-05-09T21:12:14.295Z,11
2024-05-09T21:17:17.897Z,11
2024-05-09T21:22:22.493Z,10.9
2024-05-09T21:27:26.928Z,10.9
2024-05-09T21:32:30.652Z,10.9
2024-05-09T21:37:35.034Z,10.7
2024-05-09T21:42:39.589Z,10.7
2024-05-09T21:47:43.148Z,10.8
2024-05-09T21:52:47.616Z,10.9
2024-05-09T21:57:52.232Z,10.9
2024-05-09T22:02:56.699Z,10.9
2024-05-09T22:08:00.251Z,10.9
2024-05-09T22:13:05.909Z,10.8
2024-05-09T22:18:10.341Z,10.8
2024-05-09T22:23:12.874Z,10.8
2024-05-09T22:28:17.472Z,10.8
2024-05-09T22:33:22.080Z,10.8
2024-05-09T22:38:25.564Z,10.7
2024-05-09T22:43:30.150Z,10.6
2024-05-09T22:48:34.962Z,10.5
2024-05-09T22:53:38.129Z,10.5
2024-05-09T22:58:42.663Z,10.4
2024-05-09T23:03:47.321Z,10.3
2024-05-09T23:08:51.702Z,10.5
2024-05-09T23:13:55.271Z,10.6
2024-05-09T23:18:59.995Z,10.4
2024-05-09T23:24:04.337Z,10.4
2024-05-09T23:29:07.912Z,10.6
2024-05-09T23:34:12.532Z,10.4
2024-05-09T23:39:16.959Z,10.4
2024-05-09T23:44:20.525Z,10.4
2024-05-09T23:49:25.068Z,10.4
2024-05-09T23:54:29.589Z,10.3
2024-05-09T23:59:33.156Z,10.1
